Doyon, North Dakota
Current Conditions -  °F | °C
As of 10:15 PM on Sunday 23 Nov 2014 (Local Time) from KDVL Reporting Station
Overcast Overcast  
Wind Chill: -19°   Ceiling: 1600
Heat Index: -10°   Visibility: 5mi
Dew Point: -16°   Wind: 16mph
Humidity: 62%   Direction: 350°N
Pressure: 29.63"   Gusts: 21mph
Location:  48.0187°N, 98.6029°W
Report Text: KDVL 240415Z AUTO 35014G18KT 5SM OVC016 M10/M16 A2963 RMK AO1
Loading
Personal Weather Stations






























Interactive Weather Map New forecast layout! Learn more

10-Day Weather Forecast

Advertisements
Track Severe Weather on mobile